Terminal Aerodrome Forecast
Issued by NWS

Home | Current Version | Previous Version | Text Only | Print | Product List | Glossary On
Versions: 1 2 3 4 5 6 7 8 9 10 11 12 13 14 15 16 17
000
FTUS43 KICT 311139
TAFSLN
TAF
KSLN 311139Z 3112/0112 16014KT P6SM VCSH SCT007 BKN040
      TEMPO 3112/3116 5SM -RASN BR FEW007 SCT015 BKN035
     FM311700 17013KT P6SM -RA BKN007 OVC015
     FM010600 27011KT P6SM -RA BKN007 OVC015
     FM010900 34016KT P6SM -RASN BKN015=

USA.gov is the U.S. government's official web portal to all federal, state and local government web resources and services.